nku.com.cn alexa rank chart, nku.com.cn alexa rank daily changes

nku.com.cn alexa rank chart, nku.com.cn alexa rank daily changes

nku.com.cn
Actual rank:
198 597

RANK HISTORY

Date Rank Diff
2017/04/28 198 597 -26 307
2017/04/27 224 904 +16 622
2017/04/26 208 282 -10 789
2017/04/25 219 071 +6 937
2017/04/24 212 134 -784
2017/04/23 212 918 -179
2017/04/22 213 097 +9 608
2017/04/21 203 489 +20 432
2017/04/20 183 057 +8 227
2017/04/19 174 830 -29
2017/04/18 174 859 -649
2017/04/17 175 508 +7 532
2017/04/16 167 976 +5 337
2017/04/15 162 639 +5 104
2017/04/14 157 535 +5 716
2017/04/13 151 819 +405
2017/04/12 151 414 +75
2017/04/11 151 339 -6 645
2017/04/10 157 984 +4 434
2017/04/09 153 550 -350
2017/04/08 153 900 -5 800
2017/04/07 159 700 +856
2017/04/06 158 844 +319
2017/04/05 158 525 -2 343
2017/04/04 160 868 +4 733
2017/04/03 156 135 -1 038
2017/04/02 157 173 -5 644
2017/04/01 162 817 +4 526
2017/03/31 158 291 +4 367
2017/03/30 153 924 -7 201
2017/03/29 161 125 -100
2017/03/28 161 225 -151
2017/03/27 161 376 +3 513
2017/03/26 157 863 +5 606
2017/03/25 152 257 -11 284
2017/03/24 163 541 +5 804
2017/03/23 157 737 +5 914
2017/03/22 151 823 -5 782
2017/03/21 157 605 -1 027
2017/03/20 158 632 -15 071
2017/03/19 173 703 -179
2017/03/18 173 882 +13 890
2017/03/17 159 992 -4 401
2017/03/16 164 393 -255
2017/03/15 164 648 +5 875
2017/03/14 158 773 -6 898
2017/03/13 165 671 +16
2017/03/12 165 655 +11 310
2017/03/11 154 345 +4 187
2017/03/10 150 158 +527
2017/03/09 149 631 +267
2017/03/08 149 364 +1 122
2017/03/07 148 242 -14 654
2017/03/06 162 896 +7 719
2017/03/01 155 177 +7 463
2017/02/28 147 714 +24
2017/02/27 147 690

WIDGET FOR YOUR SITE

DOMAINS WITH THE NEAREST RANK

Domain Rank
bridaltune.com 198 592
ouenblog.com 198 593
cronos.be 198 594
film-time.ru 198 595
lit-helper.com 198 596
nku.com.cn 198 597
watts.com 198 598
tvz.hr 198 599
pharmasimple.com 198 600
x-drivers.com 198 601
prepareforbiggestupdating.club 198 602

DOMAINS WITH THE NEAREST RANK BY TLD .com.cn

Domain Rank
ntr.com.cn 198 016
olympus.com.cn 198 204
sigma-rt.com.cn 198 354
wanhu.com.cn 198 477
fabiao.com.cn 198 513
nku.com.cn 198 597
scie.com.cn 198 761
onlineoffline.com.cn 199 111
guyi.com.cn 199 136
vipabc.com.cn 199 365
xyzq.com.cn 199 434